Time;durP1;ratioP1;P1;durP2;ratioP2;P2;SDS_P1;SDS_P2;PMS_P1;PMS_P2;Temp;Humidity;BMP_temperature;BMP_pressure;BME280_temperature;BME280_humidity;BME280_pressure;Samples;Min_cycle;Max_cycle;Signal;HPM_P1;HPM_P2
2023/01/02 00:00:19;;;;;;;9.75;3.83;;;9.30;99.90;;;;;;5131855;28;20046;-64
2023/01/02 00:02:46;;;;;;;9.07;4.25;;;9.30;99.90;;;;;;5132014;28;20444;-64
2023/01/02 00:05:13;;;;;;;8.90;3.80;;;9.30;99.90;;;;;;5094749;28;20441;-63
2023/01/02 00:07:40;;;;;;;13.05;4.82;;;9.30;99.90;;;;;;5112876;28;20044;-63
2023/01/02 00:10:07;;;;;;;7.57;4.38;;;9.30;99.90;;;;;;5093580;28;20051;-63
2023/01/02 00:12:34;;;;;;;9.20;4.00;;;9.30;99.90;;;;;;5094541;28;20495;-63
2023/01/02 00:15:02;;;;;;;10.27;4.72;;;9.30;99.90;;;;;;5112692;28;20043;-63
2023/01/02 00:17:29;;;;;;;10.38;4.00;;;9.30;99.90;;;;;;5093749;28;20040;-63
2023/01/02 00:19:56;;;;;;;7.43;4.20;;;9.30;99.90;;;;;;5112468;28;20502;-63
2023/01/02 00:22:23;;;;;;;6.13;3.58;;;9.30;99.90;;;;;;5112723;28;20140;-63
2023/01/02 00:24:50;;;;;;;9.57;4.20;;;9.40;99.90;;;;;;5094101;28;20047;-63
2023/01/02 00:27:17;;;;;;;7.35;4.57;;;9.40;99.90;;;;;;5112671;28;20377;-63
2023/01/02 00:29:44;;;;;;;7.60;4.35;;;9.40;99.90;;;;;;5111069;28;20055;-63
2023/01/02 00:32:12;;;;;;;6.78;4.55;;;9.40;99.90;;;;;;5111760;28;20078;-63
2023/01/02 00:34:39;;;;;;;5.97;4.35;;;9.90;99.90;;;;;;5112935;28;20054;-63
2023/01/02 00:37:06;;;;;;;9.18;5.57;;;9.50;99.90;;;;;;5111101;28;20059;-63
2023/01/02 00:39:33;;;;;;;7.28;5.32;;;9.50;99.90;;;;;;5131642;28;20503;-63
2023/01/02 00:42:00;;;;;;;10.25;5.85;;;9.60;99.90;;;;;;5131737;28;20043;-62
2023/01/02 00:44:27;;;;;;;8.70;5.35;;;9.60;99.90;;;;;;5112291;28;20062;-63
2023/01/02 00:46:54;;;;;;;8.95;5.53;;;9.60;99.90;;;;;;5132183;28;20380;-63
2023/01/02 00:49:22;;;;;;;9.25;5.88;;;9.60;99.90;;;;;;5112862;28;20043;-62
2023/01/02 00:51:49;;;;;;;7.15;5.57;;;9.70;99.90;;;;;;5131077;28;20510;-64
2023/01/02 00:54:16;;;;;;;7.03;5.00;;;9.70;99.90;;;;;;5110852;28;20058;-64
2023/01/02 00:56:42;;;;;;;10.13;5.75;;;9.70;99.90;;;;;;5132657;27;20051;-63
2023/01/02 00:59:09;;;;;;;8.50;5.38;;;9.70;99.90;;;;;;5112092;27;20043;-64
2023/01/02 01:01:36;;;;;;;9.65;5.90;;;9.80;99.90;;;;;;5135317;27;20061;-63
2023/01/02 01:04:04;;;;;;;9.20;5.75;;;9.80;99.90;;;;;;5135743;27;20453;-64
2023/01/02 01:06:33;;;;;;;10.77;5.57;;;9.80;99.90;;;;;;5115808;27;20445;-63
2023/01/02 01:09:00;;;;;;;9.27;5.57;;;9.80;99.90;;;;;;5115821;27;20067;-64
2023/01/02 01:11:27;;;;;;;9.77;5.80;;;9.90;99.90;;;;;;5116399;27;20543;-64
2023/01/02 01:13:54;;;;;;;7.40;5.03;;;9.90;99.90;;;;;;5115001;27;20044;-64
2023/01/02 01:16:21;;;;;;;7.15;4.75;;;9.90;99.90;;;;;;5114730;27;20048;-64
2023/01/02 01:18:48;;;;;;;7.07;4.53;;;9.90;99.90;;;;;;5115332;27;20494;-65
2023/01/02 01:21:17;;;;;;;6.43;4.78;;;10.00;99.90;;;;;;5114491;27;20051;-66
2023/01/02 01:23:50;;;;;;;7.68;4.35;;;10.00;99.90;;;;;;5114361;27;20043;-66
2023/01/02 01:26:17;;;;;;;6.65;4.60;;;10.00;99.90;;;;;;5115801;27;20035;-65
2023/01/02 01:28:44;;;;;;;8.05;4.63;;;10.10;99.90;;;;;;5135413;27;20043;-66
2023/01/02 01:31:13;;;;;;;7.93;4.90;;;10.10;99.90;;;;;;5116476;27;20116;-66
2023/01/02 01:33:41;;;;;;;6.90;4.68;;;10.10;99.90;;;;;;5134259;27;20417;-66
2023/01/02 01:36:11;;;;;;;5.95;4.63;;;10.10;99.90;;;;;;5134811;27;20468;-66
2023/01/02 01:38:38;;;;;;;8.50;5.20;;;10.10;99.90;;;;;;5113739;27;20056;-65
2023/01/02 01:41:06;;;;;;;9.18;4.63;;;10.20;99.90;;;;;;5133776;27;20062;-65
2023/01/02 01:43:41;;;;;;;6.80;4.88;;;10.10;99.90;;;;;;5132924;27;20043;-65
2023/01/02 01:46:16;;;;;;;8.45;5.50;;;10.20;99.90;;;;;;5134690;27;20039;-65
2023/01/02 01:48:43;;;;;;;9.73;5.22;;;10.20;99.90;;;;;;5096127;27;20513;-65
2023/01/02 01:51:10;;;;;;;7.30;5.50;;;10.20;99.90;;;;;;5096662;28;20521;-65
2023/01/02 01:53:38;;;;;;;8.45;5.78;;;10.20;99.90;;;;;;5115418;27;20134;-65
2023/01/02 01:56:10;;;;;;;8.95;6.22;;;10.20;99.90;;;;;;5096131;28;20043;-64
2023/01/02 01:58:41;;;;;;;10.40;5.85;;;10.20;99.90;;;;;;5115112;27;20133;-63
2023/01/02 02:01:11;;;;;;;8.25;6.53;;;10.20;99.90;;;;;;5114273;27;20047;-63
2023/01/02 02:03:39;;;;;;;9.13;6.80;;;10.20;99.90;;;;;;5096462;28;20040;-63
2023/01/02 02:06:07;;;;;;;11.85;6.70;;;10.20;99.90;;;;;;5096249;27;20040;-63
2023/01/02 02:08:41;;;;;;;11.20;6.75;;;10.30;99.90;;;;;;5113801;27;20044;-63
2023/01/02 02:11:10;;;;;;;9.02;6.53;;;10.30;99.90;;;;;;5114658;27;20054;-64
2023/01/02 02:13:37;;;;;;;10.70;6.70;;;10.20;99.90;;;;;;5096476;27;20058;-64
2023/01/02 02:16:17;;;;;;;13.65;6.40;;;10.30;99.90;;;;;;5095764;28;20054;-64
2023/01/02 02:19:11;;;;;;;10.47;6.63;;;10.30;99.90;;;;;;5096468;27;20059;-64
2023/01/02 02:22:05;;;;;;;10.20;7.30;;;10.30;99.90;;;;;;5096123;28;20051;-64
2023/01/02 02:25:09;;;;;;;10.30;7.00;;;10.40;99.90;;;;;;5129922;27;20094;-64
2023/01/02 02:27:59;;;;;;;10.13;6.72;;;10.40;99.90;;;;;;5114416;27;20050;-64
2023/01/02 02:30:34;;;;;;;9.55;6.72;;;10.50;99.90;;;;;;5113580;27;20051;-64
2023/01/02 02:33:14;;;;;;;8.95;7.10;;;10.40;99.90;;;;;;5096125;28;20511;-64
2023/01/02 02:35:53;;;;;;;9.80;6.75;;;10.50;99.90;;;;;;5114463;27;20036;-64
2023/01/02 02:38:33;;;;;;;10.38;6.50;;;10.50;99.90;;;;;;5095422;28;20050;-64
2023/01/02 02:41:09;;;;;;;7.93;6.55;;;10.50;99.90;;;;;;5077686;28;20060;-64
2023/01/02 02:43:48;;;;;;;10.70;7.18;;;10.50;99.90;;;;;;5071576;28;20064;-64
2023/01/02 02:46:20;;;;;;;9.27;6.45;;;10.60;99.90;;;;;;5073563;28;20041;-64
2023/01/02 02:48:56;;;;;;;11.43;6.63;;;10.60;99.90;;;;;;5073503;28;20098;-64
2023/01/02 02:51:30;;;;;;;8.48;7.10;;;10.60;99.90;;;;;;5071685;28;20052;-64
2023/01/02 02:54:03;;;;;;;10.40;7.32;;;10.60;99.90;;;;;;5073375;28;20496;-64
2023/01/02 02:56:32;;;;;;;8.95;6.97;;;10.60;99.90;;;;;;5071821;28;20123;-64
2023/01/02 02:58:59;;;;;;;11.10;7.20;;;10.70;99.90;;;;;;5071702;28;20094;-64
2023/01/02 03:01:29;;;;;;;10.77;7.63;;;10.70;99.90;;;;;;5071544;28;20052;-64
2023/01/02 03:03:56;;;;;;;11.07;7.72;;;10.70;99.90;;;;;;5072184;28;20378;-64
2023/01/02 03:06:37;;;;;;;9.70;7.43;;;10.70;99.90;;;;;;5088108;28;20447;-64
2023/01/02 03:09:12;;;;;;;10.20;7.47;;;10.70;99.90;;;;;;5091415;28;20048;-64
2023/01/02 03:11:50;;;;;;;10.55;6.82;;;10.80;99.90;;;;;;5090456;28;20093;-63
2023/01/02 03:14:24;;;;;;;9.30;7.15;;;10.80;99.90;;;;;;5092493;28;20403;-63
2023/01/02 03:16:57;;;;;;;10.07;6.65;;;10.80;99.90;;;;;;5087657;28;20036;-63
2023/01/02 03:19:27;;;;;;;8.48;6.60;;;10.70;99.90;;;;;;5090085;28;20093;-63
2023/01/02 03:21:58;;;;;;;10.98;7.75;;;10.70;99.90;;;;;;5091243;28;20097;-63
2023/01/02 03:24:25;;;;;;;;;;;10.70;99.90;;;;;;5092213;28;20052;-63
2023/01/02 03:26:59;;;;;;;9.00;6.90;;;10.80;99.90;;;;;;5089959;28;19924;-63
2023/01/02 03:29:33;;;;;;;10.63;7.07;;;10.80;99.90;;;;;;5090620;28;20101;-63
2023/01/02 03:32:04;;;;;;;8.45;6.18;;;10.80;99.90;;;;;;5091658;28;20043;-63
2023/01/02 03:34:34;;;;;;;10.05;7.55;;;10.80;99.90;;;;;;5090036;28;20052;-63
2023/01/02 03:37:04;;;;;;;11.82;6.80;;;10.80;99.90;;;;;;5091465;28;20036;-63
2023/01/02 03:39:35;;;;;;;11.35;7.55;;;10.80;99.90;;;;;;5089745;28;20154;-62
2023/01/02 03:42:06;;;;;;;11.20;7.53;;;10.80;99.90;;;;;;5092229;28;20117;-62
2023/01/02 03:44:38;;;;;;;10.20;7.55;;;10.80;99.90;;;;;;5090936;28;20060;-63
2023/01/02 03:47:15;;;;;;;15.40;8.27;;;10.90;99.90;;;;;;5091695;28;20048;-63
2023/01/02 03:49:47;;;;;;;12.25;8.32;;;10.90;99.90;;;;;;5090515;28;20051;-63
2023/01/02 03:52:14;;;;;;;14.73;9.00;;;10.90;99.90;;;;;;5092125;28;20055;-63
2023/01/02 03:54:41;;;;;;;15.27;8.63;;;10.90;99.90;;;;;;5090064;28;20060;-63
2023/01/02 03:57:14;;;;;;;14.60;9.10;;;10.90;99.90;;;;;;5090465;28;20553;-63
2023/01/02 03:59:49;;;;;;;23.70;9.48;;;10.90;99.90;;;;;;5090696;28;20052;-63
2023/01/02 04:02:27;;;;;;;16.10;9.43;;;11.00;99.90;;;;;;5089862;28;20052;-63
2023/01/02 04:04:56;;;;;;;17.90;9.82;;;11.00;99.90;;;;;;5090678;28;20044;-63
2023/01/02 04:07:27;;;;;;;16.15;9.32;;;11.00;99.90;;;;;;5089683;28;20048;-63
2023/01/02 04:09:55;;;;;;;14.02;8.70;;;11.00;99.90;;;;;;5091987;28;20059;-65
2023/01/02 04:12:24;;;;;;;13.07;9.80;;;11.00;99.90;;;;;;5074516;28;20506;-63
2023/01/02 04:14:55;;;;;;;19.73;9.18;;;11.00;99.90;;;;;;5089164;28;20051;-64
2023/01/02 04:17:26;;;;;;;15.35;9.98;;;11.00;99.90;;;;;;5074453;28;20438;-64
2023/01/02 04:19:55;;;;;;;;;;;11.00;99.90;;;;;;5092470;28;20119;-64
2023/01/02 04:22:28;;;;;;;17.95;9.85;;;11.00;99.90;;;;;;5073664;28;19924;-64
2023/01/02 04:24:59;;;;;;;15.73;9.70;;;11.00;99.90;;;;;;5074676;28;20051;-64
2023/01/02 04:27:31;;;;;;;19.00;9.80;;;11.00;99.90;;;;;;5089750;28;20097;-64
2023/01/02 04:29:58;;;;;;;21.33;10.65;;;11.00;99.90;;;;;;5091231;28;20044;-64
2023/01/02 04:32:31;;;;;;;16.45;9.77;;;11.00;99.90;;;;;;5093930;28;20040;-63
2023/01/02 04:35:00;;;;;;;20.17;10.52;;;11.00;99.90;;;;;;5094393;28;20454;-63
2023/01/02 04:37:33;;;;;;;14.70;10.90;;;11.00;99.90;;;;;;5095059;28;20579;-63
2023/01/02 04:40:03;;;;;;;19.02;11.98;;;11.00;99.90;;;;;;5086289;28;20052;-63
2023/01/02 04:42:30;;;;;;;19.05;10.38;;;11.00;99.90;;;;;;5074642;28;20419;-63
2023/01/02 04:44:57;;;;;;;15.95;11.10;;;10.90;99.90;;;;;;5074071;28;20055;-62
2023/01/02 04:47:24;;;;;;;16.88;10.57;;;11.00;99.90;;;;;;5075676;28;20047;-63
2023/01/02 04:49:52;;;;;;;18.90;11.20;;;11.00;99.90;;;;;;5075507;28;20048;-63
2023/01/02 04:52:19;;;;;;;21.30;11.57;;;11.00;99.90;;;;;;5074590;28;20492;-63
2023/01/02 04:54:46;;;;;;;19.50;10.98;;;11.00;99.90;;;;;;5074398;28;20052;-63
2023/01/02 04:57:13;;;;;;;18.42;11.13;;;11.00;99.90;;;;;;5075157;28;20047;-63
2023/01/02 04:59:39;;;;;;;20.63;9.43;;;11.00;99.90;;;;;;5074550;28;20447;-63
2023/01/02 05:02:06;;;;;;;15.95;10.68;;;11.00;99.90;;;;;;5074208;28;20055;-63
2023/01/02 05:04:33;;;;;;;17.40;10.48;;;11.00;99.90;;;;;;5093803;28;20093;-63
2023/01/02 05:07:02;;;;;;;16.88;10.07;;;11.00;99.90;;;;;;5094644;28;20043;-63
2023/01/02 05:09:29;;;;;;;19.33;9.98;;;11.00;99.90;;;;;;5074107;28;20056;-63
2023/01/02 05:11:56;;;;;;;15.70;10.00;;;11.00;99.90;;;;;;5073685;28;20048;-63
2023/01/02 05:14:23;;;;;;;17.58;9.43;;;11.00;99.90;;;;;;5075304;28;20047;-63
2023/01/02 05:16:50;;;;;;;13.75;8.60;;;11.00;99.90;;;;;;5074259;28;20060;-63
2023/01/02 05:19:16;;;;;;;13.27;8.70;;;11.00;99.90;;;;;;5073669;28;20052;-64
2023/01/02 05:24:44;;;;;;;10.70;7.15;;;10.90;99.90;;;;;;5032547;28;20049;-63
2023/01/02 05:27:11;;;;;;;11.30;8.32;;;10.90;99.90;;;;;;5015496;28;20061;-62
2023/01/02 05:29:37;;;;;;;13.85;7.40;;;10.90;99.90;;;;;;5050963;28;20057;-64
2023/01/02 05:32:05;;;;;;;9.27;6.60;;;10.90;99.90;;;;;;5090058;28;20119;-63
2023/01/02 05:34:32;;;;;;;10.02;7.18;;;10.90;99.90;;;;;;5092766;28;20055;-63
2023/01/02 05:36:59;;;;;;;10.90;7.25;;;10.90;99.90;;;;;;5094171;28;20051;-62
2023/01/02 05:39:25;;;;;;;10.73;6.55;;;10.90;99.90;;;;;;5096090;28;20047;-62
2023/01/02 05:41:54;;;;;;;10.68;7.30;;;10.90;99.90;;;;;;5114641;27;20511;-62
2023/01/02 05:44:22;;;;;;;9.55;6.18;;;11.00;99.90;;;;;;5131483;27;20047;-62
2023/01/02 05:46:49;;;;;;;9.00;6.70;;;10.90;99.90;;;;;;5134316;27;20054;-62
2023/01/02 05:49:16;;;;;;;8.23;6.22;;;10.90;99.90;;;;;;5134835;27;20047;-61
2023/01/02 05:51:42;;;;;;;12.43;6.43;;;10.90;99.90;;;;;;5115373;27;20058;-61
2023/01/02 05:54:09;;;;;;;7.18;5.75;;;10.90;99.90;;;;;;5113837;27;20052;-62
2023/01/02 05:56:36;;;;;;;7.55;5.72;;;10.90;99.90;;;;;;5115319;27;20060;-62
2023/01/02 05:59:06;;;;;;;9.43;6.53;;;10.90;99.90;;;;;;5114000;27;20043;-62
2023/01/02 06:01:34;;;;;;;8.65;6.40;;;10.90;99.90;;;;;;5100435;27;20131;-62
2023/01/02 06:04:01;;;;;;;9.18;5.63;;;10.90;99.90;;;;;;5115088;27;20050;-62
2023/01/02 06:06:32;;;;;;;8.25;6.07;;;10.90;99.90;;;;;;5096396;27;20068;-62
2023/01/02 06:08:59;;;;;;;8.02;5.72;;;10.90;99.90;;;;;;5114259;27;20447;-62
2023/01/02 06:11:26;;;;;;;8.57;5.78;;;10.90;99.90;;;;;;5094793;28;20139;-63
2023/01/02 06:13:53;;;;;;;9.45;5.55;;;10.90;99.90;;;;;;5099561;28;20056;-63
2023/01/02 06:16:22;;;;;;;8.60;5.63;;;10.90;99.90;;;;;;5113604;27;20450;-62
2023/01/02 06:18:50;;;;;;;8.93;6.05;;;10.90;99.90;;;;;;5098602;28;20036;-63
2023/01/02 06:21:19;;;;;;;8.20;5.63;;;10.90;99.90;;;;;;5099857;28;20066;-63
2023/01/02 06:23:46;;;;;;;6.45;5.05;;;10.90;99.90;;;;;;5102408;27;20058;-62
2023/01/02 06:26:15;;;;;;;7.00;4.57;;;11.00;99.90;;;;;;5113897;27;20104;-63
2023/01/02 06:28:42;;;;;;;6.80;4.80;;;10.90;99.90;;;;;;5105307;27;20104;-62
2023/01/02 06:31:11;;;;;;;6.40;4.70;;;10.90;99.90;;;;;;5113127;27;20507;-63
2023/01/02 06:33:39;;;;;;;8.93;5.28;;;10.90;99.90;;;;;;5102916;27;20088;-62
2023/01/02 06:36:08;;;;;;;8.82;4.32;;;10.80;99.90;;;;;;5100345;28;20047;-62
2023/01/02 06:38:35;;;;;;;9.32;4.80;;;10.90;99.90;;;;;;5102704;27;20479;-63
2023/01/02 06:41:02;;;;;;;9.13;5.00;;;10.90;99.90;;;;;;5113227;28;20403;-62
2023/01/02 06:43:30;;;;;;;10.23;5.95;;;10.80;99.90;;;;;;5128122;27;20065;-62
2023/01/02 06:45:58;;;;;;;9.70;5.70;;;10.80;99.90;;;;;;5113526;27;20452;-62
2023/01/02 06:48:25;;;;;;;8.10;5.65;;;10.80;99.90;;;;;;5113728;27;20096;-62
2023/01/02 06:50:54;;;;;;;8.32;5.15;;;10.80;99.90;;;;;;5100820;28;20047;-61
2023/01/02 06:53:21;;;;;;;8.68;5.75;;;10.80;99.90;;;;;;5100692;27;20051;-62
2023/01/02 06:55:51;;;;;;;7.53;5.13;;;10.80;99.90;;;;;;5100552;27;20051;-62
2023/01/02 06:58:18;;;;;;;;;;;10.80;99.90;;;;;;5097505;28;20074;-62
2023/01/02 07:00:45;;;;;;;6.47;5.63;;;10.70;99.90;;;;;;5100164;27;19951;-62
2023/01/02 07:03:12;;;;;;;8.18;6.65;;;10.60;99.90;;;;;;5113196;28;20050;-62
2023/01/02 07:05:39;;;;;;;9.60;6.50;;;10.60;99.90;;;;;;5119886;27;20088;-61
2023/01/02 07:08:08;;;;;;;8.45;5.97;;;10.50;99.90;;;;;;5102989;27;20043;-62
2023/01/02 07:10:35;;;;;;;7.03;4.72;;;10.40;99.90;;;;;;5116058;27;20051;-63
2023/01/02 07:13:02;;;;;;;9.18;4.63;;;10.20;99.90;;;;;;5112829;27;20506;-62
2023/01/02 07:15:30;;;;;;;8.85;4.97;;;10.00;99.90;;;;;;5130315;27;20436;-62
2023/01/02 07:17:58;;;;;;;10.15;5.25;;;9.90;99.90;;;;;;5100718;28;20048;-63
2023/01/02 07:20:25;;;;;;;6.13;3.90;;;9.80;99.90;;;;;;5129632;27;20057;-62
2023/01/02 07:22:53;;;;;;;6.15;4.60;;;9.70;99.90;;;;;;5131854;27;20069;-62
2023/01/02 07:25:22;;;;;;;7.10;4.90;;;9.60;99.90;;;;;;5099857;28;20059;-64
2023/01/02 07:27:49;;;;;;;5.38;3.20;;;9.50;99.90;;;;;;5112604;27;20403;-61
2023/01/02 07:30:16;;;;;;;4.43;1.80;;;9.40;99.90;;;;;;5099742;27;20075;-62
2023/01/02 07:32:43;;;;;;;2.70;1.20;;;9.30;99.90;;;;;;5120408;27;20050;-62
2023/01/02 07:35:11;;;;;;;2.60;1.70;;;9.30;99.90;;;;;;5118106;27;20470;-62
2023/01/02 07:37:38;;;;;;;6.43;2.65;;;9.20;99.90;;;;;;5119830;27;20058;-63
2023/01/02 07:40:05;;;;;;;3.60;2.60;;;9.10;99.90;;;;;;5121339;27;20133;-62
2023/01/02 07:42:34;;;;;;;3.70;2.20;;;9.00;99.90;;;;;;5118740;27;20058;-62
2023/01/02 07:45:01;;;;;;;3.83;2.03;;;9.10;99.90;;;;;;5118714;27;20044;-63
2023/01/02 07:47:28;;;;;;;3.42;2.00;;;9.00;99.90;;;;;;5101535;28;20509;-62
2023/01/02 07:49:55;;;;;;;3.70;2.30;;;8.90;99.90;;;;;;5110483;27;20047;-63
2023/01/02 07:52:22;;;;;;;3.75;2.03;;;8.90;99.90;;;;;;5101609;28;20058;-62
2023/01/02 07:54:48;;;;;;;3.75;1.83;;;8.80;99.90;;;;;;5099161;28;20440;-63
2023/01/02 07:57:15;;;;;;;2.38;1.00;;;8.70;99.90;;;;;;5099923;28;20051;-63
2023/01/02 07:59:45;;;;;;;4.53;1.40;;;8.60;99.90;;;;;;5102095;28;20047;-62
2023/01/02 08:02:12;;;;;;;4.53;1.75;;;8.60;99.90;;;;;;5099505;28;20060;-62
2023/01/02 08:04:39;;;;;;;4.55;1.83;;;8.50;99.90;;;;;;5126211;28;20506;-62
2023/01/02 08:07:06;;;;;;;2.63;1.40;;;8.50;99.90;;;;;;5108551;28;20433;-62
2023/01/02 08:09:33;;;;;;;2.80;1.30;;;8.50;99.90;;;;;;5130815;28;20146;-62
2023/01/02 08:12:00;;;;;;;6.88;1.88;;;8.40;99.90;;;;;;5130446;28;20103;-63
2023/01/02 08:14:27;;;;;;;3.53;1.48;;;8.40;99.90;;;;;;5111083;28;20065;-62
2023/01/02 08:16:55;;;;;;;2.58;1.30;;;8.40;99.90;;;;;;5099421;28;20110;-62
2023/01/02 08:19:22;;;;;;;5.97;1.48;;;8.40;99.90;;;;;;5100353;28;20047;-62
2023/01/02 08:21:49;;;;;;;5.35;1.50;;;8.40;99.90;;;;;;5110468;28;20051;-63
2023/01/02 08:24:16;;;;;;;4.95;2.03;;;8.40;99.90;;;;;;5111596;28;20491;-62
2023/01/02 08:26:42;;;;;;;4.43;1.75;;;8.30;99.90;;;;;;5111453;28;20380;-63
2023/01/02 08:29:09;;;;;;;5.68;1.60;;;8.30;99.90;;;;;;5108993;28;20047;-62
2023/01/02 08:31:36;;;;;;;3.00;1.45;;;8.40;99.90;;;;;;5103369;27;20070;-62
2023/01/02 08:34:05;;;;;;;3.88;1.30;;;8.30;99.90;;;;;;5120808;28;20451;-63
2023/01/02 08:36:31;;;;;;;3.88;1.60;;;8.40;99.90;;;;;;5091593;28;20062;-62
2023/01/02 08:38:58;;;;;;;4.22;2.10;;;8.40;99.90;;;;;;5129432;28;20397;-62
2023/01/02 08:41:33;;;;;;;4.32;1.50;;;8.40;99.90;;;;;;5111829;28;20051;-63
2023/01/02 08:44:00;;;;;;;3.05;1.60;;;8.40;99.90;;;;;;5131302;28;20559;-63
2023/01/02 08:46:27;;;;;;;4.05;1.70;;;8.30;99.90;;;;;;5129640;28;20071;-63
2023/01/02 08:48:54;;;;;;;4.60;1.60;;;8.30;99.90;;;;;;5111996;28;20051;-63
2023/01/02 08:51:22;;;;;;;4.57;1.92;;;8.30;99.90;;;;;;5107093;28;20503;-63
2023/01/02 08:53:49;;;;;;;6.45;2.40;;;8.30;99.90;;;;;;5131482;28;20047;-63
2023/01/02 08:56:18;;;;;;;5.47;2.20;;;8.30;99.90;;;;;;5111219;28;20054;-62
2023/01/02 08:58:48;;;;;;;3.50;2.17;;;8.40;99.90;;;;;;5112488;28;20035;-62
2023/01/02 09:01:15;;;;;;;;;;;8.40;99.90;;;;;;5112864;28;20414;-62
2023/01/02 09:03:42;;;;;;;9.10;2.67;;;8.40;99.90;;;;;;5111879;28;19923;-62
2023/01/02 09:06:09;;;;;;;5.20;2.22;;;8.40;99.90;;;;;;5094004;28;20415;-62
2023/01/02 09:08:37;;;;;;;5.85;2.00;;;8.40;99.90;;;;;;5112502;28;20423;-62
2023/01/02 09:11:11;;;;;;;4.70;1.85;;;8.30;99.90;;;;;;5093466;28;20142;-62
2023/01/02 09:13:38;;;;;;;4.55;2.13;;;8.30;99.90;;;;;;5112179;28;20519;-62
2023/01/02 09:16:05;;;;;;;5.05;1.88;;;8.30;99.90;;;;;;5111425;28;20052;-63
2023/01/02 09:18:32;;;;;;;4.28;1.25;;;8.30;99.90;;;;;;5111926;27;20047;-62
2023/01/02 09:20:59;;;;;;;2.50;1.40;;;8.30;99.90;;;;;;5095970;28;20100;-62
2023/01/02 09:23:26;;;;;;;3.05;1.70;;;8.30;99.90;;;;;;5096466;28;20056;-62
2023/01/02 09:25:58;;;;;;;3.28;1.50;;;8.30;99.90;;;;;;5096612;28;20445;-62
2023/01/02 09:28:25;;;;;;;4.90;1.90;;;8.30;99.90;;;;;;5113640;27;20123;-62
2023/01/02 09:30:52;;;;;;;3.33;1.70;;;8.30;99.90;;;;;;5118091;27;20055;-62
2023/01/02 09:33:19;;;;;;;3.03;1.60;;;8.40;99.90;;;;;;5104365;27;20051;-63
2023/01/02 09:35:46;;;;;;;2.75;1.75;;;8.40;99.90;;;;;;5121360;27;20047;-63
2023/01/02 09:38:13;;;;;;;3.17;2.05;;;8.40;99.90;;;;;;5100478;27;20100;-63
2023/01/02 09:40:45;;;;;;;5.28;2.42;;;8.50;99.90;;;;;;5113651;28;20048;-64
2023/01/02 09:43:16;;;;;;;4.05;2.20;;;8.40;99.90;;;;;;5118066;27;20054;-63
2023/01/02 09:45:44;;;;;;;;;;;8.50;99.90;;;;;;5114271;27;20039;-63
2023/01/02 09:48:16;;;;;;;4.88;2.13;;;8.50;99.90;;;;;;5106534;28;19924;-64
2023/01/02 09:50:45;;;;;;;4.15;2.33;;;8.50;99.90;;;;;;5095205;27;20089;-63
2023/01/02 09:53:13;;;;;;;3.70;2.05;;;8.50;99.90;;;;;;5095858;28;20051;-63
2023/01/02 09:55:45;;;;;;;3.97;2.38;;;8.50;99.90;;;;;;5095074;28;20510;-63
2023/01/02 09:58:22;;;;;;;6.03;2.30;;;8.50;99.90;;;;;;5112653;28;20495;-63
2023/01/02 10:00:50;;;;;;;5.00;2.20;;;8.50;99.90;;;;;;5100676;28;20043;-62
2023/01/02 10:03:26;;;;;;;3.90;2.28;;;8.50;99.90;;;;;;5113808;28;20048;-63
2023/01/02 10:06:08;;;;;;;5.72;2.67;;;8.50;99.90;;;;;;5095372;28;20059;-63
2023/01/02 10:08:45;;;;;;;5.38;2.83;;;8.50;99.90;;;;;;5094237;28;20066;-63
2023/01/02 10:11:34;;;;;;;5.00;2.40;;;8.50;99.90;;;;;;5112940;27;20055;-63
2023/01/02 10:14:11;;;;;;;4.93;2.50;;;8.50;99.90;;;;;;5102985;28;20067;-63
2023/01/02 10:16:43;;;;;;;5.55;2.35;;;8.50;99.90;;;;;;5095860;27;20488;-62
2023/01/02 10:19:17;;;;;;;7.07;2.47;;;8.50;99.90;;;;;;5116225;27;20146;-62
2023/01/02 10:21:47;;;;;;;4.45;2.72;;;8.50;99.90;;;;;;5113097;27;20091;-62
2023/01/02 10:24:20;;;;;;;4.25;2.65;;;8.50;99.90;;;;;;5094489;28;20126;-62
2023/01/02 10:26:52;;;;;;;4.10;2.45;;;8.50;99.90;;;;;;5099124;28;20163;-62
2023/01/02 10:29:27;;;;;;;8.65;1.98;;;8.50;99.90;;;;;;5112783;27;20046;-62
2023/01/02 10:31:59;;;;;;;5.13;2.22;;;8.50;99.90;;;;;;5098957;28;20097;-62
2023/01/02 10:34:33;;;;;;;7.38;2.45;;;8.50;99.90;;;;;;5111851;28;20130;-62
2023/01/02 10:37:00;;;;;;;7.47;2.92;;;8.50;99.90;;;;;;5094154;28;20051;-62
2023/01/02 10:39:31;;;;;;;5.43;2.30;;;8.50;99.90;;;;;;5112399;28;20051;-63
2023/01/02 10:41:59;;;;;;;3.47;2.30;;;8.60;99.90;;;;;;5094273;28;20392;-62
2023/01/02 10:44:33;;;;;;;4.43;2.38;;;8.40;99.90;;;;;;5094051;27;20044;-62
2023/01/02 10:47:10;;;;;;;3.58;2.13;;;8.50;99.90;;;;;;5093472;28;20060;-62
2023/01/02 10:49:38;;;;;;;5.43;2.40;;;8.50;99.90;;;;;;5122573;27;20051;-62
2023/01/02 10:52:11;;;;;;;4.57;2.08;;;8.40;99.90;;;;;;5119760;27;20088;-63
2023/01/02 10:54:49;;;;;;;2.95;1.80;;;8.50;99.90;;;;;;5103390;27;20516;-63
2023/01/02 10:57:24;;;;;;;2.85;1.63;;;8.50;99.90;;;;;;5117271;27;20070;-62
2023/01/02 10:59:59;;;;;;;3.97;1.80;;;8.60;99.90;;;;;;5113344;27;20160;-62
2023/01/02 11:02:36;;;;;;;3.35;1.90;;;8.60;99.90;;;;;;5093414;28;20047;-63
2023/01/02 11:05:04;;;;;;;3.53;1.70;;;8.70;99.90;;;;;;5093990;28;20454;-63
2023/01/02 11:07:38;;;;;;;3.70;2.08;;;8.70;99.90;;;;;;5093513;27;20051;-62
2023/01/02 11:10:23;;;;;;;3.33;1.83;;;8.80;99.90;;;;;;5093215;28;20126;-62
2023/01/02 11:12:50;;;;;;;4.40;1.90;;;8.90;99.90;;;;;;5112012;27;20123;-62
2023/01/02 11:15:25;;;;;;;4.80;1.90;;;8.90;99.90;;;;;;5111863;28;20051;-62
2023/01/02 11:17:52;;;;;;;6.85;2.22;;;9.00;99.90;;;;;;5092772;28;20101;-63
2023/01/02 11:20:25;;;;;;;5.28;1.92;;;9.00;99.90;;;;;;5112439;28;20051;-63
2023/01/02 11:22:54;;;;;;;4.10;1.77;;;9.10;99.90;;;;;;5111983;28;20051;-63
2023/01/02 11:25:24;;;;;;;3.33;2.10;;;9.20;99.90;;;;;;5093096;28;20059;-63
2023/01/02 11:27:51;;;;;;;6.68;2.38;;;9.30;99.90;;;;;;5105944;28;20051;-63
2023/01/02 11:30:35;;;;;;;5.90;2.22;;;9.70;99.90;;;;;;5121783;27;20039;-63
2023/01/02 11:33:06;;;;;;;5.20;1.55;;;9.80;99.90;;;;;;5099328;28;20095;-63
2023/01/02 11:35:39;;;;;;;5.70;1.85;;;10.40;99.90;;;;;;5093204;28;20056;-63
2023/01/02 11:38:14;;;;;;;5.05;1.70;;;11.30;99.90;;;;;;5114496;27;20048;-62
2023/01/02 11:40:56;;;;;;;3.33;1.77;;;12.00;99.90;;;;;;5092615;28;20052;-62
2023/01/02 11:46:20;;;;;;;;;;;12.70;99.90;;;;;;5112460;28;20050;-62
2023/01/02 11:48:47;;;;;;;3.30;1.63;;;13.20;99.90;;;;;;5093396;28;19926;-62
2023/01/02 11:51:16;;;;;;;6.35;2.00;;;13.20;99.90;;;;;;5117589;27;20054;-62
2023/01/02 11:53:46;;;;;;;7.82;1.92;;;13.10;99.90;;;;;;5115768;27;20506;-62
2023/01/02 11:56:19;;;;;;;6.03;2.00;;;12.80;99.90;;;;;;5104567;28;20059;-62
2023/01/02 11:58:52;;;;;;;5.70;2.25;;;12.50;99.90;;;;;;5113833;27;20051;-62
2023/01/02 12:01:28;;;;;;;4.05;1.83;;;12.10;99.90;;;;;;5111445;28;20122;-63
2023/01/02 12:03:55;;;;;;;7.43;2.10;;;11.50;99.90;;;;;;5112094;28;20121;-62
2023/01/02 12:06:25;;;;;;;4.38;1.92;;;11.20;99.90;;;;;;5091814;28;20051;-62
2023/01/02 12:09:03;;;;;;;4.72;1.73;;;11.00;99.90;;;;;;5111201;28;20105;-62
2023/01/02 12:11:52;;;;;;;5.93;1.30;;;10.60;99.90;;;;;;5092996;28;20510;-62
2023/01/02 12:14:22;;;;;;;5.50;2.30;;;10.30;99.90;;;;;;5092285;28;20495;-62
2023/01/02 12:17:01;;;;;;;6.45;1.80;;;10.00;99.90;;;;;;5111956;28;20035;-63
2023/01/02 12:19:43;;;;;;;6.50;1.65;;;9.90;99.90;;;;;;5092572;28;20052;-63
2023/01/02 12:22:31;;;;;;;6.30;2.15;;;9.80;99.90;;;;;;5092026;28;20521;-63
2023/01/02 12:25:30;;;;;;;7.88;1.95;;;9.60;99.90;;;;;;5093237;28;20051;-63
2023/01/02 12:28:05;;;;;;;8.23;1.88;;;9.60;99.90;;;;;;5091677;28;20483;-62
2023/01/02 12:30:35;;;;;;;7.57;2.22;;;9.50;99.90;;;;;;5093464;28;20483;-63
2023/01/02 12:33:39;;;;;;;3.35;1.95;;;9.50;99.90;;;;;;5092654;28;20101;-62
2023/01/02 12:36:42;;;;;;;6.57;1.92;;;9.40;99.90;;;;;;5073584;28;20043;-62
2023/01/02 12:39:26;;;;;;;4.97;2.22;;;9.40;99.90;;;;;;5083536;28;20051;-63
2023/01/02 12:42:05;;;;;;;7.05;1.70;;;9.50;99.90;;;;;;5091789;28;20513;-62
2023/01/02 12:44:47;;;;;;;6.10;1.88;;;9.40;99.90;;;;;;5094859;28;20116;-62
2023/01/02 12:47:30;;;;;;;9.43;2.38;;;9.40;99.90;;;;;;5093649;28;20444;-62
2023/01/02 12:50:24;;;;;;;5.68;1.92;;;9.30;99.90;;;;;;5092078;28;20487;-62
2023/01/02 12:53:04;;;;;;;4.43;1.75;;;9.30;99.90;;;;;;5101433;28;20047;-63
2023/01/02 12:55:44;;;;;;;6.43;2.10;;;9.30;99.90;;;;;;5096101;28;20108;-62
2023/01/02 12:58:23;;;;;;;9.05;2.25;;;9.30;99.90;;;;;;5114619;27;20048;-63
2023/01/02 13:00:58;;;;;;;6.32;1.95;;;9.30;99.90;;;;;;5096398;28;20398;-63
2023/01/02 13:04:03;;;;;;;7.95;2.13;;;9.20;99.90;;;;;;5114103;27;20046;-62
2023/01/02 13:06:44;;;;;;;8.18;2.60;;;9.30;99.90;;;;;;5063412;28;20052;-62
2023/01/02 13:09:15;;;;;;;8.10;1.80;;;9.20;99.90;;;;;;5090990;28;20059;-62
2023/01/02 13:11:43;;;;;;;;;;;9.20;99.90;;;;;;5114425;27;20052;-62
2023/01/02 13:14:16;;;;;;;8.88;2.80;;;9.20;99.90;;;;;;5097622;28;19980;-62